Time;durP1;ratioP1;P1;durP2;ratioP2;P2;SDS_P1;SDS_P2;PMS_P1;PMS_P2;Temp;Humidity;BMP_temperature;BMP_pressure;BME280_temperature;BME280_humidity;BME280_pressure;Samples;Min_cycle;Max_cycle;Signal;HPM_P1;HPM_P2
2022/09/24 00:00:00;;;;;;;5.77;4.47;;;12.50;99.90;;;;;;4990366;28;20598;-90
2022/09/24 00:02:26;;;;;;;7.10;4.40;;;12.50;99.90;;;;;;5007667;28;20451;-89
2022/09/24 00:04:53;;;;;;;5.63;4.10;;;12.50;99.90;;;;;;5002722;28;20306;-90
2022/09/24 00:07:20;;;;;;;5.70;4.60;;;12.50;99.90;;;;;;4991744;28;20218;-89
2022/09/24 00:09:47;;;;;;;6.30;4.27;;;12.50;99.90;;;;;;4989998;28;20414;-91
2022/09/24 00:12:13;;;;;;;5.73;4.27;;;12.50;99.90;;;;;;5006224;28;20240;-91
2022/09/24 00:14:40;;;;;;;5.80;4.30;;;12.50;99.90;;;;;;5003458;28;20219;-90
2022/09/24 00:17:08;;;;;;;5.53;4.30;;;12.60;99.90;;;;;;5009292;28;20222;-92
2022/09/24 00:19:35;;;;;;;4.83;4.33;;;12.50;99.90;;;;;;4991285;28;20240;-89
2022/09/24 00:22:04;;;;;;;5.00;4.40;;;12.50;99.90;;;;;;5005981;28;20222;-89
2022/09/24 00:27:16;;;;;;;5.03;4.47;;;12.50;99.90;;;;;;5007333;28;20222;-89
2022/09/24 00:29:42;;;;;;;5.50;5.00;;;12.40;99.90;;;;;;4992748;28;20326;-89
2022/09/24 00:32:12;;;;;;;6.53;3.97;;;12.40;99.90;;;;;;5006518;28;20233;-89
2022/09/24 00:34:38;;;;;;;5.10;4.60;;;12.40;99.90;;;;;;4985770;28;20236;-89
2022/09/24 00:37:05;;;;;;;6.23;4.40;;;12.40;99.90;;;;;;5005931;28;20691;-89
2022/09/24 00:39:32;;;;;;;4.93;4.40;;;12.30;99.90;;;;;;4994243;28;20233;-90
2022/09/24 00:41:59;;;;;;;5.80;4.20;;;12.40;99.90;;;;;;5008997;28;20805;-89
2022/09/24 00:44:53;;;;;;;5.97;4.83;;;12.30;99.90;;;;;;4992391;28;20287;-89
2022/09/24 00:47:33;;;;;;;6.03;4.33;;;12.30;99.90;;;;;;5006230;28;20232;-90
2022/09/24 00:50:08;;;;;;;6.40;4.77;;;12.30;99.90;;;;;;4985676;28;20231;-86
2022/09/24 00:52:40;;;;;;;6.43;4.97;;;12.30;99.90;;;;;;4999408;28;20327;-86
2022/09/24 00:55:09;;;;;;;6.87;5.20;;;12.20;99.90;;;;;;4996841;28;20234;-91
2022/09/24 00:57:38;;;;;;;6.43;4.60;;;12.20;99.90;;;;;;5003289;28;20228;-88
2022/09/24 01:00:06;;;;;;;6.70;4.40;;;12.20;99.90;;;;;;4999724;28;20228;-85
2022/09/24 01:02:36;;;;;;;5.43;4.40;;;12.20;99.90;;;;;;5001987;28;20232;-89
2022/09/24 01:05:03;;;;;;;6.10;4.87;;;12.20;99.90;;;;;;4986480;28;20245;-89
2022/09/24 01:07:30;;;;;;;6.37;4.53;;;12.20;99.90;;;;;;4991236;28;20291;-88
2022/09/24 01:09:57;;;;;;;6.60;4.67;;;12.20;99.90;;;;;;5008500;28;20302;-90
2022/09/24 01:12:32;;;;;;;8.27;4.90;;;12.10;99.90;;;;;;5007063;28;20266;-89
2022/09/24 01:15:15;;;;;;;4.63;4.13;;;12.10;99.90;;;;;;5001398;28;20719;-89
2022/09/24 01:17:49;;;;;;;5.20;4.70;;;12.10;99.90;;;;;;5006644;28;20229;-89
2022/09/24 01:20:51;;;;;;;6.63;4.37;;;12.00;99.90;;;;;;5005316;28;20244;-89
2022/09/24 01:23:47;;;;;;;6.13;4.90;;;12.00;99.90;;;;;;5006143;28;20216;-89
2022/09/24 01:26:28;;;;;;;6.80;4.93;;;12.00;99.90;;;;;;4982747;28;20246;-89
2022/09/24 01:29:09;;;;;;;5.93;5.37;;;12.00;99.90;;;;;;5007214;28;20228;-89
2022/09/24 01:31:45;;;;;;;5.80;5.20;;;11.90;99.90;;;;;;5006377;28;20563;-91
2022/09/24 01:34:17;;;;;;;7.17;4.93;;;11.90;99.90;;;;;;5006654;28;20237;-88
2022/09/24 01:36:46;;;;;;;5.47;4.97;;;11.90;99.90;;;;;;4993278;28;20773;-88
2022/09/24 01:39:14;;;;;;;5.57;5.00;;;11.90;99.90;;;;;;5005478;28;20313;-85
2022/09/24 01:41:41;;;;;;;5.80;5.07;;;11.90;99.90;;;;;;4986810;28;20225;-86
2022/09/24 01:44:10;;;;;;;6.50;5.33;;;11.80;99.90;;;;;;4989628;28;20326;-85
2022/09/24 01:46:39;;;;;;;8.27;6.63;;;11.80;99.90;;;;;;5009605;28;20229;-88
2022/09/24 01:49:07;;;;;;;6.03;5.43;;;11.80;99.90;;;;;;5010843;28;20314;-87
2022/09/24 01:51:42;;;;;;;6.43;5.53;;;11.80;99.90;;;;;;5010007;28;20949;-85
2022/09/24 01:54:15;;;;;;;6.93;5.30;;;11.80;99.90;;;;;;4998895;28;20213;-86
2022/09/24 01:56:45;;;;;;;7.17;6.13;;;11.80;99.90;;;;;;5005912;28;21244;-86
2022/09/24 01:59:17;;;;;;;7.70;5.53;;;11.80;99.90;;;;;;5003415;28;20223;-85
2022/09/24 02:01:50;;;;;;;5.50;4.90;;;11.80;99.90;;;;;;4989365;28;20679;-90
2022/09/24 02:04:19;;;;;;;6.90;5.83;;;11.80;99.90;;;;;;5007970;28;20221;-88
2022/09/24 02:06:51;;;;;;;6.50;5.90;;;11.80;99.90;;;;;;5009407;28;20242;-89
2022/09/24 02:09:35;;;;;;;8.80;5.63;;;11.80;99.90;;;;;;5010877;28;20220;-88
2022/09/24 02:12:09;;;;;;;7.63;5.60;;;11.80;99.90;;;;;;4998694;28;20266;-85
2022/09/24 02:14:39;;;;;;;5.63;4.97;;;11.80;99.90;;;;;;4987835;28;20229;-87
2022/09/24 02:17:10;;;;;;;7.77;5.83;;;11.70;99.90;;;;;;5005112;28;20221;-88
2022/09/24 02:19:39;;;;;;;7.60;6.73;;;11.70;99.90;;;;;;4989882;28;20223;-88
2022/09/24 02:22:09;;;;;;;7.67;6.40;;;11.70;99.90;;;;;;5006890;28;20218;-88
2022/09/24 02:24:43;;;;;;;7.73;5.60;;;11.70;99.90;;;;;;5004925;28;20229;-85
2022/09/24 02:27:10;;;;;;;6.13;5.50;;;11.70;99.90;;;;;;5000413;28;20696;-86
2022/09/24 02:29:37;;;;;;;6.47;5.77;;;11.70;99.90;;;;;;4990192;28;20254;-87
2022/09/24 02:32:06;;;;;;;8.33;6.00;;;11.70;99.90;;;;;;5002633;28;20232;-89
2022/09/24 02:34:37;;;;;;;6.50;5.87;;;11.60;99.90;;;;;;5008099;28;20649;-88
2022/09/24 02:37:06;;;;;;;10.00;5.60;;;11.70;99.90;;;;;;5012216;28;20249;-89
2022/09/24 02:39:33;;;;;;;7.57;5.77;;;11.70;99.90;;;;;;4989155;28;20308;-88
2022/09/24 02:42:03;;;;;;;6.80;6.10;;;11.70;99.90;;;;;;5004250;28;20308;-88
2022/09/24 02:44:30;;;;;;;6.43;5.40;;;11.60;99.90;;;;;;4998713;28;20233;-86
2022/09/24 02:46:57;;;;;;;5.87;5.27;;;11.60;99.90;;;;;;4998861;28;20238;-86
2022/09/24 02:49:24;;;;;;;6.37;5.77;;;11.60;99.90;;;;;;4981753;28;20255;-86
2022/09/24 02:51:52;;;;;;;8.23;5.57;;;11.60;99.90;;;;;;4984195;28;20298;-85
2022/09/24 02:54:19;;;;;;;6.93;5.67;;;11.60;99.90;;;;;;5000265;28;20224;-89
2022/09/24 02:56:45;;;;;;;6.87;6.13;;;11.60;99.90;;;;;;4991706;28;20319;-90
2022/09/24 02:59:12;;;;;;;6.67;6.07;;;11.50;99.90;;;;;;5008511;28;20230;-88
2022/09/24 03:01:39;;;;;;;7.40;6.23;;;11.60;99.90;;;;;;5004480;28;20234;-88
2022/09/24 03:04:06;;;;;;;6.70;6.10;;;11.50;99.90;;;;;;4987852;28;20233;-86
2022/09/24 03:06:33;;;;;;;6.70;6.10;;;11.50;99.90;;;;;;5007685;28;20235;-89
2022/09/24 03:09:02;;;;;;;8.40;6.83;;;11.50;99.90;;;;;;5011204;28;20307;-89
2022/09/24 03:11:31;;;;;;;7.70;6.90;;;11.50;99.90;;;;;;5006525;28;20328;-87
2022/09/24 03:13:59;;;;;;;8.23;7.00;;;11.50;99.90;;;;;;5004677;28;20224;-86
2022/09/24 03:16:26;;;;;;;8.93;6.17;;;11.50;99.90;;;;;;4990845;28;20308;-86
2022/09/24 03:18:53;;;;;;;7.60;6.80;;;11.50;99.90;;;;;;5006093;28;20224;-88
2022/09/24 03:21:21;;;;;;;7.63;6.83;;;11.50;99.90;;;;;;5007669;28;20221;-86
2022/09/24 03:23:48;;;;;;;7.50;6.70;;;11.50;99.90;;;;;;5004243;28;20606;-86
2022/09/24 03:26:17;;;;;;;8.23;6.50;;;11.50;99.90;;;;;;5006127;28;21001;-88
2022/09/24 03:28:44;;;;;;;8.23;6.47;;;11.50;99.90;;;;;;4992643;28;20228;-88
2022/09/24 03:31:11;;;;;;;7.57;6.77;;;11.60;99.90;;;;;;5003381;28;20782;-88
2022/09/24 03:33:40;;;;;;;9.83;6.93;;;11.50;99.90;;;;;;5007890;28;20209;-88
2022/09/24 03:36:09;;;;;;;9.17;6.23;;;11.50;99.90;;;;;;4999726;28;20226;-89
2022/09/24 03:38:37;;;;;;;8.67;7.23;;;11.50;99.90;;;;;;5009547;28;20796;-88
2022/09/24 03:41:05;;;;;;;8.10;6.93;;;11.50;99.90;;;;;;5005216;28;20240;-89
2022/09/24 03:43:34;;;;;;;8.70;7.63;;;11.50;99.90;;;;;;5003767;28;20245;-90
2022/09/24 03:46:01;;;;;;;8.80;7.27;;;11.50;99.90;;;;;;5004007;28;20310;-87
2022/09/24 03:48:29;;;;;;;7.77;6.63;;;11.50;99.90;;;;;;5006991;28;20275;-85
2022/09/24 03:50:56;;;;;;;7.53;6.67;;;11.50;99.90;;;;;;4980587;28;20280;-86
2022/09/24 03:53:23;;;;;;;8.23;7.23;;;11.50;99.90;;;;;;4980159;28;20236;-87
2022/09/24 03:55:54;;;;;;;10.30;7.90;;;11.50;99.90;;;;;;5002979;28;20221;-88
2022/09/24 03:58:21;;;;;;;8.60;7.70;;;11.50;99.90;;;;;;4991700;28;20307;-87
2022/09/24 04:00:51;;;;;;;9.57;7.73;;;11.50;99.90;;;;;;5002086;28;20325;-86
2022/09/24 04:03:18;;;;;;;10.13;8.33;;;11.50;99.90;;;;;;4992273;28;20626;-88
2022/09/24 04:05:44;;;;;;;11.33;8.40;;;11.40;99.90;;;;;;5000595;28;20711;-87
2022/09/24 04:08:11;;;;;;;8.37;7.47;;;11.40;99.90;;;;;;4988016;28;20297;-90
2022/09/24 04:10:37;;;;;;;9.17;8.23;;;11.40;99.90;;;;;;4985590;28;20329;-90
2022/09/24 04:13:04;;;;;;;9.43;8.53;;;11.40;99.90;;;;;;5005504;28;20247;-90
2022/09/24 04:15:31;;;;;;;9.97;8.87;;;11.40;99.90;;;;;;4991458;28;20225;-90
2022/09/24 04:17:59;;;;;;;9.90;8.37;;;11.40;99.90;;;;;;5005074;28;20215;-91
2022/09/24 04:20:29;;;;;;;8.93;8.03;;;11.40;99.90;;;;;;5004024;28;20232;-91
2022/09/24 04:22:58;;;;;;;9.37;7.80;;;11.30;99.90;;;;;;4985898;28;20256;-90
2022/09/24 04:25:27;;;;;;;9.70;7.07;;;11.40;99.90;;;;;;5004525;28;20236;-87
2022/09/24 04:27:55;;;;;;;8.70;7.80;;;11.30;99.90;;;;;;5004573;28;20336;-90
2022/09/24 04:30:23;;;;;;;9.30;8.47;;;11.30;99.90;;;;;;5003044;28;20261;-91
2022/09/24 04:32:51;;;;;;;8.97;8.10;;;11.30;99.90;;;;;;5007166;28;20252;-93
2022/09/24 04:35:21;;;;;;;9.10;8.10;;;11.30;99.90;;;;;;5001843;28;20308;-90
2022/09/24 04:37:48;;;;;;;10.07;8.63;;;11.30;99.90;;;;;;5007188;28;20241;-91
2022/09/24 04:40:16;;;;;;;15.43;9.70;;;11.30;99.90;;;;;;5005778;28;20227;-89
2022/09/24 04:42:45;;;;;;;13.63;9.80;;;11.30;99.90;;;;;;4991369;28;20334;-89
2022/09/24 04:45:13;;;;;;;10.27;9.27;;;11.30;99.90;;;;;;5008277;28;20274;-90
2022/09/24 04:47:40;;;;;;;11.13;8.80;;;11.30;99.90;;;;;;5009836;28;20229;-90
2022/09/24 04:50:10;;;;;;;9.53;8.50;;;11.30;99.90;;;;;;4981982;28;20314;-89
2022/09/24 04:52:38;;;;;;;10.90;9.80;;;11.30;99.90;;;;;;4992583;28;20235;-88
2022/09/24 04:55:08;;;;;;;10.90;9.70;;;11.30;99.90;;;;;;4980964;28;20722;-87
2022/09/24 04:57:35;;;;;;;10.57;9.53;;;11.30;99.90;;;;;;5004322;28;20231;-89
2022/09/24 05:00:03;;;;;;;13.07;9.90;;;11.20;99.90;;;;;;5003273;28;20573;-90
2022/09/24 05:02:30;;;;;;;11.63;9.93;;;11.20;99.90;;;;;;4999116;28;20254;-88
2022/09/24 05:04:57;;;;;;;11.47;9.93;;;11.30;99.90;;;;;;4999640;28;20724;-90
2022/09/24 05:07:24;;;;;;;12.83;10.43;;;11.30;99.90;;;;;;4987916;28;20770;-90
2022/09/24 05:09:52;;;;;;;11.67;9.93;;;11.30;99.90;;;;;;5006876;28;20258;-92
2022/09/24 05:12:20;;;;;;;12.63;10.90;;;11.30;99.90;;;;;;5001926;28;20684;-90
2022/09/24 05:14:47;;;;;;;11.20;9.97;;;11.30;99.90;;;;;;5001041;28;20314;-90
2022/09/24 05:17:14;;;;;;;11.80;10.13;;;11.30;99.90;;;;;;4983422;28;20240;-90
2022/09/24 05:19:40;;;;;;;12.23;10.60;;;11.30;99.90;;;;;;4986480;28;20229;-90
2022/09/24 05:22:07;;;;;;;12.30;11.00;;;11.30;99.90;;;;;;5001621;28;20231;-92
2022/09/24 05:24:34;;;;;;;12.43;10.87;;;11.30;99.90;;;;;;4989520;28;20319;-89
2022/09/24 05:27:09;;;;;;;12.30;11.03;;;11.30;99.90;;;;;;4990130;28;20249;-93
2022/09/24 05:29:37;;;;;;;16.20;12.40;;;11.30;99.90;;;;;;5005340;28;20259;-92
2022/09/24 05:32:10;;;;;;;12.70;11.40;;;11.30;99.90;;;;;;5000247;28;20225;-93
2022/09/24 05:34:37;;;;;;;13.43;12.03;;;11.40;99.90;;;;;;5004777;28;20227;-93
2022/09/24 05:37:04;;;;;;;14.00;12.50;;;11.30;99.90;;;;;;5004170;28;20310;-93
2022/09/24 05:39:34;;;;;;;13.67;12.27;;;11.30;99.90;;;;;;5002793;28;20234;-92
2022/09/24 05:42:03;;;;;;;13.37;11.93;;;11.30;99.90;;;;;;5001847;28;20296;-93
2022/09/24 05:44:30;;;;;;;16.23;12.40;;;11.30;99.90;;;;;;5002206;28;20637;-93
2022/09/24 05:46:57;;;;;;;15.73;11.53;;;11.40;99.90;;;;;;4987528;28;20245;-93
2022/09/24 05:49:24;;;;;;;17.97;13.53;;;11.30;99.90;;;;;;5000322;28;20314;-90
2022/09/24 05:51:51;;;;;;;15.43;13.83;;;11.40;99.90;;;;;;5003245;28;20243;-94
2022/09/24 05:54:19;;;;;;;16.03;12.90;;;11.40;99.90;;;;;;5004815;28;20231;-94
2022/09/24 05:56:46;;;;;;;15.53;13.87;;;11.40;99.90;;;;;;4986778;28;20234;-93
2022/09/24 05:59:20;;;;;;;14.33;12.83;;;11.40;99.90;;;;;;5002933;28;20235;-93
2022/09/24 06:01:47;;;;;;;16.13;14.10;;;11.40;99.90;;;;;;5003338;28;20233;-92
2022/09/24 06:04:14;;;;;;;13.83;12.37;;;11.40;99.90;;;;;;5003652;28;20228;-93
2022/09/24 06:06:42;;;;;;;17.33;14.33;;;11.40;99.90;;;;;;5006737;28;20311;-93
2022/09/24 06:09:36;;;;;;;16.20;13.43;;;11.50;99.90;;;;;;4997374;28;20221;-95
2022/09/24 06:12:03;;;;;;;17.40;14.47;;;11.50;99.90;;;;;;4987739;28;20230;-94
2022/09/24 06:14:34;;;;;;;16.83;14.87;;;11.50;99.90;;;;;;4994146;28;21255;-94
2022/09/24 06:17:01;;;;;;;18.50;15.63;;;11.50;99.90;;;;;;5002219;28;20268;-93
2022/09/24 06:19:27;;;;;;;17.77;15.77;;;11.60;99.90;;;;;;4998503;28;20312;-92
2022/09/24 06:21:55;;;;;;;17.60;15.07;;;11.60;99.90;;;;;;5003807;28;20225;-93
2022/09/24 06:24:22;;;;;;;18.07;16.07;;;11.50;99.90;;;;;;4997682;28;20728;-93
2022/09/24 06:26:50;;;;;;;18.93;16.93;;;11.50;99.90;;;;;;4987466;28;20743;-92
2022/09/24 06:29:17;;;;;;;18.90;16.17;;;11.60;99.90;;;;;;4990388;28;20971;-92
2022/09/24 06:31:52;;;;;;;20.10;17.23;;;11.50;99.90;;;;;;5011151;28;20256;-92
2022/09/24 06:34:20;;;;;;;21.37;18.97;;;11.50;99.90;;;;;;4993335;28;21923;-91
2022/09/24 06:36:46;;;;;;;21.57;17.87;;;11.50;99.90;;;;;;5008209;28;20215;-94
2022/09/24 06:39:16;;;;;;;21.10;18.73;;;11.50;99.90;;;;;;4992526;28;20274;-92
2022/09/24 06:41:53;;;;;;;21.80;18.37;;;11.50;99.90;;;;;;4989086;28;20648;-95
2022/09/24 06:44:22;;;;;;;22.07;18.50;;;11.50;99.90;;;;;;4991991;28;20317;-96
2022/09/24 06:46:51;;;;;;;28.70;24.47;;;11.50;99.90;;;;;;5040302;23;20499;-83
2022/09/24 06:49:18;;;;;;;24.07;20.23;;;11.50;99.90;;;;;;5049440;28;20278;-82
2022/09/24 06:51:44;;;;;;;22.67;19.37;;;11.50;99.90;;;;;;5048680;28;20707;-81
2022/09/24 06:54:11;;;;;;;25.83;20.83;;;11.50;99.90;;;;;;5050147;28;20230;-81
2022/09/24 06:56:38;;;;;;;23.03;18.87;;;11.40;99.90;;;;;;5051046;28;20262;-81
2022/09/24 06:59:05;;;;;;;23.67;19.20;;;11.40;99.90;;;;;;5049655;28;20633;-80
2022/09/24 07:01:32;;;;;;;22.97;18.50;;;11.40;99.90;;;;;;5050445;28;20290;-80
2022/09/24 07:04:00;;;;;;;23.00;18.83;;;11.40;99.90;;;;;;5045656;28;20644;-80
2022/09/24 07:07:28;;;;;;;23.17;18.87;;;11.40;99.90;;;;;;5048834;28;20241;-81
2022/09/24 07:09:13;;;;;;;23.87;19.90;;;11.30;99.90;;;;;;5048537;28;20241;-81
2022/09/24 07:11:40;;;;;;;26.97;20.70;;;11.30;99.90;;;;;;5045074;28;20241;-84
2022/09/24 07:14:07;;;;;;;24.63;21.83;;;11.30;99.90;;;;;;5042523;28;20596;-84
2022/09/24 07:16:34;;;;;;;28.27;23.97;;;11.30;99.90;;;;;;5042186;28;20241;-84
2022/09/24 07:19:02;;;;;;;25.00;19.37;;;11.30;99.90;;;;;;5043336;28;20219;-85
2022/09/24 07:21:28;;;;;;;21.63;18.20;;;11.30;99.90;;;;;;5044894;28;20258;-84
2022/09/24 07:23:55;;;;;;;21.07;17.97;;;11.30;99.90;;;;;;5037606;28;20226;-84
2022/09/24 07:26:22;;;;;;;21.20;17.77;;;11.30;99.90;;;;;;5034011;28;20227;-84
2022/09/24 07:28:48;;;;;;;20.27;17.00;;;11.30;99.90;;;;;;5045215;28;20224;-84
2022/09/24 07:31:16;;;;;;;20.33;16.77;;;11.30;99.90;;;;;;5043952;28;20241;-84
2022/09/24 07:33:43;;;;;;;19.67;16.40;;;11.30;99.90;;;;;;5036508;28;20249;-85
2022/09/24 07:36:11;;;;;;;23.43;17.63;;;11.30;99.90;;;;;;5044259;28;20218;-85
2022/09/24 07:38:38;;;;;;;20.53;17.10;;;11.30;99.90;;;;;;5038226;28;20725;-84
2022/09/24 07:41:06;;;;;;;22.90;17.77;;;11.30;99.90;;;;;;5026332;28;20760;-84
2022/09/24 07:43:33;;;;;;;22.23;19.17;;;11.30;99.90;;;;;;5025021;28;20724;-85
2022/09/24 07:46:00;;;;;;;22.60;17.60;;;11.30;99.90;;;;;;5024488;28;20233;-84
2022/09/24 07:48:26;;;;;;;18.13;16.13;;;11.40;99.90;;;;;;5026094;28;20540;-84
2022/09/24 07:50:53;;;;;;;22.17;16.27;;;11.40;99.90;;;;;;5024332;28;20700;-84
2022/09/24 07:53:22;;;;;;;19.83;16.77;;;11.40;99.90;;;;;;5030269;28;20234;-85
2022/09/24 07:55:49;;;;;;;20.70;17.30;;;11.40;99.90;;;;;;5039808;28;20629;-83
2022/09/24 07:58:15;;;;;;;20.73;17.80;;;11.40;99.90;;;;;;5043160;28;20426;-84
2022/09/24 08:00:42;;;;;;;20.30;16.87;;;11.40;99.90;;;;;;5041311;28;20219;-84
2022/09/24 08:03:09;;;;;;;23.47;18.67;;;11.40;99.90;;;;;;5039298;28;20224;-84
2022/09/24 08:05:36;;;;;;;23.07;18.23;;;11.40;99.90;;;;;;5043103;28;20727;-85
2022/09/24 08:08:03;;;;;;;22.73;17.50;;;11.40;99.90;;;;;;5046542;28;20218;-86
2022/09/24 08:10:31;;;;;;;24.43;19.13;;;11.40;99.90;;;;;;5044668;28;20764;-85
2022/09/24 08:13:01;;;;;;;20.93;17.50;;;11.40;99.90;;;;;;5036472;28;20670;-85
2022/09/24 08:15:28;;;;;;;19.60;17.07;;;11.30;99.90;;;;;;5042586;28;20220;-85
2022/09/24 08:18:00;;;;;;;24.07;18.80;;;11.30;99.90;;;;;;5045270;28;20230;-85
2022/09/24 08:20:26;;;;;;;23.30;17.83;;;11.40;99.90;;;;;;5042287;28;20264;-85
2022/09/24 08:22:53;;;;;;;23.63;18.67;;;11.30;99.90;;;;;;5039953;28;20242;-84
2022/09/24 08:25:20;;;;;;;27.20;22.47;;;11.30;99.90;;;;;;5042583;28;20231;-84
2022/09/24 08:27:48;;;;;;;24.07;19.27;;;11.40;99.90;;;;;;5045802;28;20338;-84
2022/09/24 08:30:15;;;;;;;22.27;17.63;;;11.40;99.90;;;;;;5043814;28;20298;-84
2022/09/24 08:32:46;;;;;;;23.03;17.50;;;11.40;99.90;;;;;;5046177;28;20217;-83
2022/09/24 08:35:14;;;;;;;21.07;18.30;;;11.40;99.90;;;;;;5040779;28;20713;-82
2022/09/24 08:37:41;;;;;;;25.13;18.07;;;11.50;99.90;;;;;;5046012;28;20220;-82
2022/09/24 08:40:16;;;;;;;22.80;18.23;;;11.50;99.90;;;;;;5038231;28;20298;-83
2022/09/24 08:42:50;;;;;;;20.40;17.83;;;11.50;99.90;;;;;;5037111;28;20226;-83
2022/09/24 08:48:12;;;;;;;22.17;18.33;;;11.50;99.90;;;;;;5042507;28;20227;-83
2022/09/24 08:50:47;;;;;;;21.63;18.17;;;11.50;99.90;;;;;;5038004;28;20227;-84
2022/09/24 08:53:20;;;;;;;22.50;17.73;;;11.50;99.90;;;;;;5039122;28;20233;-83
2022/09/24 08:55:49;;;;;;;26.53;18.57;;;11.50;99.90;;;;;;5043957;28;20234;-83
2022/09/24 08:58:28;;;;;;;24.17;18.47;;;11.50;99.90;;;;;;5041157;28;20279;-85
2022/09/24 09:01:04;;;;;;;22.90;17.87;;;11.50;99.90;;;;;;5041173;28;20220;-85
2022/09/24 09:03:36;;;;;;;23.77;20.37;;;11.50;99.90;;;;;;5037498;28;20225;-83
2022/09/24 09:06:10;;;;;;;22.00;19.60;;;11.60;99.90;;;;;;5041482;28;20247;-87
2022/09/24 09:08:44;;;;;;;25.13;20.17;;;11.60;99.90;;;;;;5041143;28;20341;-84
2022/09/24 09:11:16;;;;;;;22.60;18.40;;;11.60;99.90;;;;;;5042998;28;20425;-83
2022/09/24 09:13:48;;;;;;;22.83;18.03;;;11.60;99.90;;;;;;5043650;28;20231;-83
2022/09/24 09:16:23;;;;;;;22.20;18.23;;;11.60;99.90;;;;;;5042583;28;20228;-83
2022/09/24 09:18:53;;;;;;;26.60;20.23;;;11.70;99.90;;;;;;5042534;28;20239;-84
2022/09/24 09:21:27;;;;;;;23.00;18.17;;;11.70;99.90;;;;;;5041433;28;20339;-83
2022/09/24 09:23:56;;;;;;;22.30;18.27;;;11.70;99.90;;;;;;5035688;28;20728;-85
2022/09/24 09:26:24;;;;;;;21.57;18.77;;;11.70;99.90;;;;;;5043415;28;20317;-86
2022/09/24 09:28:58;;;;;;;24.37;17.83;;;11.70;99.90;;;;;;5044037;28;20323;-84
2022/09/24 09:31:37;;;;;;;22.07;17.20;;;11.70;99.90;;;;;;5042564;28;20696;-85
2022/09/24 09:34:21;;;;;;;22.93;18.03;;;11.70;99.90;;;;;;5040875;28;20221;-84
2022/09/24 09:36:57;;;;;;;21.47;17.53;;;11.70;99.90;;;;;;5043097;28;20258;-85
2022/09/24 09:39:36;;;;;;;22.67;17.60;;;11.60;99.90;;;;;;5040444;28;20315;-84
2022/09/24 09:42:16;;;;;;;25.73;20.13;;;11.60;99.90;;;;;;5039171;28;20697;-84
2022/09/24 09:44:44;;;;;;;21.67;16.97;;;11.70;99.90;;;;;;5041876;28;20251;-83
2022/09/24 09:47:22;;;;;;;21.53;17.73;;;11.70;99.90;;;;;;5039979;28;20693;-83
2022/09/24 09:49:52;;;;;;;24.20;18.43;;;11.60;99.90;;;;;;5041070;28;20587;-84
2022/09/24 09:52:22;;;;;;;25.13;18.97;;;11.60;99.90;;;;;;5034584;28;20219;-83
2022/09/24 09:54:49;;;;;;;23.77;18.97;;;11.60;99.90;;;;;;5033700;28;20307;-84
2022/09/24 09:57:19;;;;;;;25.47;19.40;;;11.70;99.90;;;;;;5040159;28;20550;-83
2022/09/24 09:59:49;;;;;;;28.83;21.80;;;11.70;99.90;;;;;;5042831;28;20266;-83
2022/09/24 10:02:24;;;;;;;27.83;21.13;;;11.70;99.90;;;;;;5042151;28;20661;-83
2022/09/24 10:04:55;;;;;;;27.27;21.63;;;11.70;99.90;;;;;;5040031;28;20652;-84
2022/09/24 10:07:22;;;;;;;29.13;22.30;;;11.80;99.90;;;;;;5030681;28;21412;-83
2022/09/24 10:10:04;;;;;;;27.33;21.33;;;11.80;99.90;;;;;;5037803;28;20224;-83
2022/09/24 10:12:31;;;;;;;27.00;21.97;;;11.90;99.90;;;;;;5040379;28;20222;-83
2022/09/24 10:15:01;;;;;;;26.63;22.03;;;11.90;99.90;;;;;;5041590;28;20230;-83
2022/09/24 10:17:31;;;;;;;30.07;23.17;;;11.90;99.90;;;;;;5045460;28;20227;-84
2022/09/24 10:20:01;;;;;;;31.60;22.43;;;12.00;99.90;;;;;;5043029;28;20310;-84
2022/09/24 10:22:29;;;;;;;28.77;21.23;;;12.00;99.90;;;;;;5042504;28;20227;-84
2022/09/24 10:24:59;;;;;;;30.23;23.43;;;12.00;99.90;;;;;;5040919;28;20249;-84
2022/09/24 10:27:31;;;;;;;29.50;23.43;;;12.00;99.90;;;;;;5045221;28;20288;-84
2022/09/24 10:32:47;;;;;;;28.93;22.17;;;12.10;99.90;;;;;;5041899;28;20247;-84
2022/09/24 10:35:25;;;;;;;30.40;23.03;;;12.10;99.90;;;;;;5040928;28;20301;-84
2022/09/24 10:37:53;;;;;;;28.20;22.67;;;12.10;99.90;;;;;;5044670;28;20239;-84
2022/09/24 10:40:24;;;;;;;27.40;22.40;;;12.10;99.90;;;;;;5044425;28;20227;-84
2022/09/24 10:43:01;;;;;;;30.33;23.67;;;12.10;99.90;;;;;;5044498;28;20242;-86
2022/09/24 10:45:53;;;;;;;29.43;23.27;;;12.10;99.90;;;;;;5045232;28;20272;-86
2022/09/24 10:48:24;;;;;;;29.03;23.77;;;12.10;99.90;;;;;;5043276;28;20212;-86
2022/09/24 10:50:58;;;;;;;27.43;21.50;;;12.10;99.90;;;;;;5046205;28;20231;-86
2022/09/24 10:53:38;;;;;;;31.40;24.80;;;12.10;99.90;;;;;;5043386;28;20786;-85
2022/09/24 10:56:14;;;;;;;30.17;22.43;;;12.10;99.90;;;;;;5038491;28;20230;-85
2022/09/24 10:59:00;;;;;;;31.03;23.80;;;12.20;99.90;;;;;;5041962;28;20235;-85
2022/09/24 11:01:35;;;;;;;31.17;23.50;;;12.10;99.90;;;;;;5046340;28;20227;-85
2022/09/24 11:04:32;;;;;;;27.90;23.47;;;12.20;99.90;;;;;;5045511;28;20222;-84
2022/09/24 11:07:26;;;;;;;29.97;23.63;;;12.20;99.90;;;;;;5045544;28;20350;-85
2022/09/24 11:09:58;;;;;;;28.10;22.07;;;12.20;99.90;;;;;;5039806;28;20239;-85
2022/09/24 11:12:34;;;;;;;31.10;23.57;;;12.10;99.90;;;;;;5027158;28;20569;-86
2022/09/24 11:15:21;;;;;;;29.83;23.43;;;12.10;99.90;;;;;;5030893;28;20295;-85
2022/09/24 11:17:59;;;;;;;31.67;24.27;;;12.10;99.90;;;;;;5047613;28;20232;-85
2022/09/24 11:20:33;;;;;;;29.60;24.33;;;12.10;99.90;;;;;;5046824;28;20316;-86
2022/09/24 11:23:16;;;;;;;31.40;24.27;;;12.10;99.90;;;;;;5048951;28;20330;-86
2022/09/24 11:25:52;;;;;;;31.90;24.73;;;12.10;99.90;;;;;;5046528;28;20229;-85
2022/09/24 11:28:37;;;;;;;28.80;23.17;;;12.10;99.90;;;;;;5048950;28;20236;-85
2022/09/24 11:31:12;;;;;;;28.90;23.23;;;12.10;99.90;;;;;;5046820;28;20236;-85
2022/09/24 11:33:59;;;;;;;28.83;23.37;;;12.10;99.90;;;;;;5049203;28;20255;-85
2022/09/24 11:36:42;;;;;;;29.57;23.60;;;12.10;99.90;;;;;;5047794;28;20341;-86
2022/09/24 11:39:23;;;;;;;31.77;23.57;;;12.10;99.90;;;;;;5044616;28;20234;-85
2022/09/24 11:41:59;;;;;;;29.80;24.27;;;12.10;99.90;;;;;;5050394;28;20235;-85
2022/09/24 11:45:01;;;;;;;30.10;23.00;;;12.20;99.90;;;;;;5064148;28;20224;-83
2022/09/24 11:47:45;;;;;;;30.57;23.57;;;12.20;99.90;;;;;;5049744;28;20251;-84
2022/09/24 11:50:30;;;;;;;32.27;25.07;;;12.20;99.90;;;;;;5049828;28;20235;-87
2022/09/24 11:53:02;;;;;;;32.20;24.40;;;12.20;99.90;;;;;;5048261;28;20225;-87
2022/09/24 11:55:34;;;;;;;30.33;24.27;;;12.20;99.90;;;;;;5041388;28;20557;-85
2022/09/24 11:58:12;;;;;;;30.97;24.10;;;12.30;99.90;;;;;;5042262;28;20219;-85
2022/09/24 12:00:44;;;;;;;32.67;24.23;;;12.30;99.90;;;;;;5043062;28;20474;-82
2022/09/24 12:03:17;;;;;;;30.23;24.73;;;12.30;99.90;;;;;;5044719;28;20314;-83
2022/09/24 12:05:50;;;;;;;31.60;24.63;;;12.40;99.90;;;;;;5049144;28;20603;-84
2022/09/24 12:08:20;;;;;;;27.43;22.43;;;12.40;99.90;;;;;;5045826;28;20611;-84
2022/09/24 12:10:50;;;;;;;26.63;22.17;;;12.40;99.90;;;;;;5048338;28;20251;-83
2022/09/24 12:13:20;;;;;;;27.43;21.13;;;12.50;99.90;;;;;;5048796;28;20216;-83
2022/09/24 12:15:52;;;;;;;27.77;22.40;;;12.50;99.90;;;;;;5050234;28;20633;-83
2022/09/24 12:18:22;;;;;;;27.00;21.60;;;12.60;99.90;;;;;;5043602;28;20245;-83
2022/09/24 12:20:54;;;;;;;27.30;21.87;;;12.50;99.90;;;;;;5046055;28;20243;-83
2022/09/24 12:23:26;;;;;;;29.10;22.60;;;12.50;99.90;;;;;;5041886;28;20231;-84
2022/09/24 12:25:55;;;;;;;24.90;21.80;;;12.50;99.90;;;;;;5046742;28;20213;-83
2022/09/24 12:34:04;;;;;;;29.87;23.23;;;12.60;99.90;;;;;;5043968;28;20282;-83
2022/09/24 12:36:49;;;;;;;28.97;23.17;;;12.60;99.90;;;;;;5040594;28;20279;-85
2022/09/24 12:39:19;;;;;;;26.33;22.33;;;12.60;99.90;;;;;;5042189;28;20223;-83
2022/09/24 12:41:50;;;;;;;29.40;23.50;;;12.60;99.90;;;;;;5047024;28;20321;-84
2022/09/24 12:44:22;;;;;;;27.97;22.40;;;12.70;99.90;;;;;;5048110;28;20234;-84
2022/09/24 12:46:52;;;;;;;26.63;22.13;;;12.70;99.90;;;;;;5050609;28;20237;-84
2022/09/24 12:49:29;;;;;;;23.77;21.10;;;12.70;99.90;;;;;;5050980;28;20253;-83
2022/09/24 12:51:59;;;;;;;27.30;22.50;;;12.80;99.90;;;;;;5049279;28;20320;-84
2022/09/24 12:54:29;;;;;;;27.63;23.87;;;12.80;99.90;;;;;;5047713;28;20591;-83
2022/09/24 12:57:15;;;;;;;26.77;21.00;;;12.90;99.90;;;;;;5050758;28;20843;-83
2022/09/24 12:59:50;;;;;;;26.17;21.40;;;13.00;99.90;;;;;;5052844;28;20298;-84
2022/09/24 13:02:22;;;;;;;23.70;20.07;;;13.00;99.90;;;;;;5044803;28;20634;-82
2022/09/24 13:05:13;;;;;;;25.03;20.80;;;13.00;99.90;;;;;;5049379;28;20224;-84